This is the latest recevied weather packets stored in our database for station/object F4JYN. If no packets are shown the sender has not sent any weather packets the latest 10 day(s).
| Time | Temp. | Humidity | Pressure | Rain* | Wind** | Luminosity | Snow |
|---|---|---|---|---|---|---|---|
| 1787668816 | 25.56° C | 45% | 979.3 hPa | - | - | - | - |
| 1787668216 | 26.67° C | 45% | 979.1 hPa | - | - | - | - |
| 1787667015 | 29.44° C | 45% | 979 hPa | - | - | - | - |
| 1787666414 | 29.44° C | 45% | 979.1 hPa | - | - | - | - |
| 1787665814 | 27.22° C | 45% | 979.1 hPa | - | - | - | - |
| 1787665214 | 28.33° C | 45% | 979.1 hPa | - | - | - | - |
| 1787664613 | 27.78° C | 45% | 979.1 hPa | - | - | - | - |
| 1787664013 | 27.22° C | 45% | 979.2 hPa | - | - | - | - |
| 1787663413 | 28.33° C | 45% | 979.2 hPa | - | - | - | - |
| 1787662812 | 25.56° C | 45% | 979.3 hPa | - | - | - | - |
| 1787662212 | 25.56° C | 45% | 979.2 hPa | - | - | - | - |
| 1787661611 | 26.67° C | 45% | 979 hPa | - | - | - | - |
| 1787661011 | 26.67° C | 45% | 979 hPa | - | - | - | - |
| 1787660409 | 28.33° C | 45% | 979 hPa | - | - | - | - |
| 1787659810 | 26.11° C | 45% | 979.1 hPa | - | - | - | - |
| 1787659809 | 26.11° C | 45% | 979.1 hPa | - | - | - | - |
| 1787659208 | 28.33° C | 45% | 978.9 hPa | - | - | - | - |
| 1787658608 | 27.22° C | 45% | 978.9 hPa | - | - | - | - |
| 1787658008 | 26.67° C | 45% | 979 hPa | - | - | - | - |
| 1787657407 | 28.33° C | 45% | 979 hPa | - | - | - | - |
| 1787656807 | 25° C | 45% | 979.1 hPa | - | - | - | - |
| 1787656207 | 25° C | 45% | 979.1 hPa | - | - | - | - |
| 1787655607 | 27.22° C | 45% | 979 hPa | - | - | - | - |
| 1787655007 | 27.78° C | 45% | 979 hPa | - | - | - | - |
| 1787654406 | 27.78° C | 45% | 979 hPa | - | - | - | - |
* Rain since midnight (hover to see other rain measurements)
** Current wind speed in m/s (hover to see current wind gust speed)